sensor_id;sensor_type;location;lat;lon;timestamp;pressure;altitude;pressure_sealevel;temperature;humidity
1776;BME280;885;42.626;23.200;2023-08-06T00:00:38;170220.38;;;18.55;100.00
1776;BME280;885;42.626;23.200;2023-08-06T00:03:05;170200.94;;;18.48;100.00
1776;BME280;885;42.626;23.200;2023-08-06T00:05:31;170130.16;;;18.22;100.00
1776;BME280;885;42.626;23.200;2023-08-06T00:07:58;170184.25;;;18.42;100.00
1776;BME280;885;42.626;23.200;2023-08-06T00:10:26;170231.47;;;18.59;100.00
1776;BME280;885;42.626;23.200;2023-08-06T00:12:53;170203.75;;;18.49;100.00
1776;BME280;885;42.626;23.200;2023-08-06T00:15:20;170191.25;;;18.45;100.00
1776;BME280;885;42.626;23.200;2023-08-06T00:17:47;170192.66;;;18.45;100.00
1776;BME280;885;42.626;23.200;2023-08-06T00:20:13;170196.78;;;18.47;100.00
1776;BME280;885;42.626;23.200;2023-08-06T00:22:40;170223.13;;;18.56;100.00
1776;BME280;885;42.626;23.200;2023-08-06T00:25:08;170228.66;;;18.58;100.00
1776;BME280;885;42.626;23.200;2023-08-06T00:27:36;170221.78;;;18.56;100.00
1776;BME280;885;42.626;23.200;2023-08-06T00:30:05;170238.41;;;18.62;100.00
1776;BME280;885;42.626;23.200;2023-08-06T00:32:32;170239.75;;;18.62;100.00
1776;BME280;885;42.626;23.200;2023-08-06T00:34:58;170170.34;;;18.37;100.00
1776;BME280;885;42.626;23.200;2023-08-06T00:37:25;170225.94;;;18.57;100.00
1776;BME280;885;42.626;23.200;2023-08-06T00:39:52;170281.41;;;18.77;100.00
1776;BME280;885;42.626;23.200;2023-08-06T00:42:19;170266.16;;;18.72;100.00
1776;BME280;885;42.626;23.200;2023-08-06T00:44:48;170277.25;;;18.76;100.00
1776;BME280;885;42.626;23.200;2023-08-06T00:47:15;170286.94;;;18.79;100.00
1776;BME280;885;42.626;23.200;2023-08-06T00:49:42;170329.97;;;18.95;100.00
1776;BME280;885;42.626;23.200;2023-08-06T00:52:09;170334.13;;;18.96;100.00
1776;BME280;885;42.626;23.200;2023-08-06T00:54:36;170328.56;;;18.94;100.00
1776;BME280;885;42.626;23.200;2023-08-06T00:57:04;170288.34;;;18.80;100.00
1776;BME280;885;42.626;23.200;2023-08-06T00:59:31;170256.47;;;18.68;100.00
1776;BME280;885;42.626;23.200;2023-08-06T01:01:59;170245.31;;;18.64;100.00
1776;BME280;885;42.626;23.200;2023-08-06T01:04:26;170259.22;;;18.69;100.00
1776;BME280;885;42.626;23.200;2023-08-06T01:07:01;170289.75;;;18.80;100.00
1776;BME280;885;42.626;23.200;2023-08-06T01:09:37;170267.56;;;18.72;100.00
1776;BME280;885;42.626;23.200;2023-08-06T01:12:17;170253.66;;;18.67;100.00
1776;BME280;885;42.626;23.200;2023-08-06T01:14:50;170285.53;;;18.79;100.00
1776;BME280;885;42.626;23.200;2023-08-06T01:17:21;170309.13;;;18.87;100.00
1776;BME280;885;42.626;23.200;2023-08-06T01:19:51;170281.41;;;18.77;100.00
1776;BME280;885;42.626;23.200;2023-08-06T01:22:21;170304.97;;;18.86;100.00
1776;BME280;885;42.626;23.200;2023-08-06T01:24:49;170328.56;;;18.94;100.00
1776;BME280;885;42.626;23.200;2023-08-06T01:27:22;170327.19;;;18.94;100.00
1776;BME280;885;42.626;23.200;2023-08-06T01:29:56;170321.63;;;18.92;100.00
1776;BME280;885;42.626;23.200;2023-08-06T01:32:25;170331.38;;;18.95;100.00
1776;BME280;885;42.626;23.200;2023-08-06T01:34:54;170311.94;;;18.88;100.00
1776;BME280;885;42.626;23.200;2023-08-06T01:37:23;170284.19;;;18.78;100.00
1776;BME280;885;42.626;23.200;2023-08-06T01:39:50;170248.13;;;18.65;100.00
1776;BME280;885;42.626;23.200;2023-08-06T01:42:17;170275.84;;;18.75;100.00
1776;BME280;885;42.626;23.200;2023-08-06T01:44:43;170296.69;;;18.83;100.00
1776;BME280;885;42.626;23.200;2023-08-06T01:47:10;170281.41;;;18.77;100.00
1776;BME280;885;42.626;23.200;2023-08-06T01:49:37;170234.22;;;18.60;100.00
1776;BME280;885;42.626;23.200;2023-08-06T01:52:04;170245.31;;;18.64;100.00
1776;BME280;885;42.626;23.200;2023-08-06T01:54:32;170281.41;;;18.77;100.00
1776;BME280;885;42.626;23.200;2023-08-06T01:56:59;170278.66;;;18.76;100.00
1776;BME280;885;42.626;23.200;2023-08-06T01:59:26;170256.47;;;18.68;100.00
1776;BME280;885;42.626;23.200;2023-08-06T02:01:53;170263.34;;;18.71;100.00
1776;BME280;885;42.626;23.200;2023-08-06T02:04:19;170260.59;;;18.70;100.00
1776;BME280;885;42.626;23.200;2023-08-06T02:06:46;170259.22;;;18.69;100.00
1776;BME280;885;42.626;23.200;2023-08-06T02:09:13;170284.19;;;18.78;100.00
1776;BME280;885;42.626;23.200;2023-08-06T02:11:41;170306.38;;;18.86;100.00
1776;BME280;885;42.626;23.200;2023-08-06T02:14:08;170332.72;;;18.96;100.00
1776;BME280;885;42.626;23.200;2023-08-06T02:16:35;170329.97;;;18.95;100.00
1776;BME280;885;42.626;23.200;2023-08-06T02:19:01;170288.34;;;18.80;100.00
1776;BME280;885;42.626;23.200;2023-08-06T02:21:28;170286.94;;;18.79;100.00
1776;BME280;885;42.626;23.200;2023-08-06T02:23:55;170311.94;;;18.88;100.00
1776;BME280;885;42.626;23.200;2023-08-06T02:26:22;170295.28;;;18.82;100.00
1776;BME280;885;42.626;23.200;2023-08-06T02:28:50;170311.94;;;18.88;100.00
1776;BME280;885;42.626;23.200;2023-08-06T02:31:17;170298.03;;;18.83;100.00
1776;BME280;885;42.626;23.200;2023-08-06T02:33:44;170298.03;;;18.83;100.00
1776;BME280;885;42.626;23.200;2023-08-06T02:36:10;170320.22;;;18.91;100.00
1776;BME280;885;42.626;23.200;2023-08-06T02:38:37;170311.94;;;18.88;100.00
1776;BME280;885;42.626;23.200;2023-08-06T02:41:04;170298.03;;;18.83;100.00
1776;BME280;885;42.626;23.200;2023-08-06T02:43:31;170306.38;;;18.86;100.00
1776;BME280;885;42.626;23.200;2023-08-06T02:46:00;170314.69;;;18.89;100.00
1776;BME280;885;42.626;23.200;2023-08-06T02:48:27;170339.69;;;18.98;100.00
1776;BME280;885;42.626;23.200;2023-08-06T02:50:57;170349.38;;;19.02;100.00
1776;BME280;885;42.626;23.200;2023-08-06T02:53:24;170360.47;;;19.06;100.00
1776;BME280;885;42.626;23.200;2023-08-06T02:55:51;170342.47;;;18.99;100.00
1776;BME280;885;42.626;23.200;2023-08-06T02:58:18;170353.56;;;19.03;100.00
1776;BME280;885;42.626;23.200;2023-08-06T03:01:00;170363.25;;;19.07;100.00
1776;BME280;885;42.626;23.200;2023-08-06T03:03:28;170323.03;;;18.92;100.00
1776;BME280;885;42.626;23.200;2023-08-06T03:05:55;170187.06;;;18.43;100.00
1776;BME280;885;42.626;23.200;2023-08-06T03:08:21;170181.44;;;18.41;100.00
1776;BME280;885;42.626;23.200;2023-08-06T03:10:52;170237.03;;;18.61;100.00
1776;BME280;885;42.626;23.200;2023-08-06T03:13:19;170220.38;;;18.55;100.00
1776;BME280;885;42.626;23.200;2023-08-06T03:15:53;170185.66;;;18.43;100.00
1776;BME280;885;42.626;23.200;2023-08-06T03:18:21;170137.09;;;18.25;100.00
1776;BME280;885;42.626;23.200;2023-08-06T03:20:48;170131.53;;;18.23;100.00
1776;BME280;885;42.626;23.200;2023-08-06T03:23:15;170181.44;;;18.41;100.00
1776;BME280;885;42.626;23.200;2023-08-06T03:25:42;170187.06;;;18.43;100.00
1776;BME280;885;42.626;23.200;2023-08-06T03:28:09;170178.72;;;18.40;100.00
1776;BME280;885;42.626;23.200;2023-08-06T03:30:36;170203.75;;;18.49;100.00
1776;BME280;885;42.626;23.200;2023-08-06T03:33:03;70618.47;;;-143.00;100.00
1776;BME280;885;42.626;23.200;2023-08-06T03:35:31;70618.47;;;-143.00;100.00
1776;BME280;885;42.626;23.200;2023-08-06T03:37:58;70618.47;;;-143.00;100.00
1776;BME280;885;42.626;23.200;2023-08-06T03:40:25;70618.47;;;-143.00;100.00
1776;BME280;885;42.626;23.200;2023-08-06T03:42:51;70618.47;;;-143.00;100.00
1776;BME280;885;42.626;23.200;2023-08-06T03:45:18;70618.47;;;-143.00;100.00
1776;BME280;885;42.626;23.200;2023-08-06T03:47:45;70618.47;;;-143.00;100.00
1776;BME280;885;42.626;23.200;2023-08-06T03:50:12;70618.47;;;-143.00;100.00
1776;BME280;885;42.626;23.200;2023-08-06T03:52:40;70618.47;;;-143.00;100.00
1776;BME280;885;42.626;23.200;2023-08-06T03:55:07;70618.47;;;-143.00;100.00
1776;BME280;885;42.626;23.200;2023-08-06T03:57:33;70618.47;;;-143.00;100.00
1776;BME280;885;42.626;23.200;2023-08-06T04:00:00;70618.47;;;-143.00;100.00
1776;BME280;885;42.626;23.200;2023-08-06T04:02:28;70618.47;;;-143.00;100.00
1776;BME280;885;42.626;23.200;2023-08-06T04:04:55;70618.47;;;-143.00;100.00
1776;BME280;885;42.626;23.200;2023-08-06T04:07:22;70618.47;;;-143.00;100.00
1776;BME280;885;42.626;23.200;2023-08-06T04:09:54;70618.47;;;-143.00;100.00
1776;BME280;885;42.626;23.200;2023-08-06T04:12:21;70618.47;;;-143.00;100.00
1776;BME280;885;42.626;23.200;2023-08-06T04:14:49;70618.47;;;-143.00;100.00
1776;BME280;885;42.626;23.200;2023-08-06T04:17:16;70618.47;;;-143.00;100.00
1776;BME280;885;42.626;23.200;2023-08-06T04:19:46;70618.47;;;-143.00;100.00
1776;BME280;885;42.626;23.200;2023-08-06T04:22:12;70618.47;;;-143.00;100.00
1776;BME280;885;42.626;23.200;2023-08-06T04:24:39;70618.47;;;-143.00;100.00
1776;BME280;885;42.626;23.200;2023-08-06T04:27:08;70618.47;;;-143.00;100.00
1776;BME280;885;42.626;23.200;2023-08-06T04:29:35;70618.47;;;-143.00;100.00
1776;BME280;885;42.626;23.200;2023-08-06T04:32:05;70618.47;;;-143.00;100.00
1776;BME280;885;42.626;23.200;2023-08-06T04:34:32;70618.47;;;-143.00;100.00
1776;BME280;885;42.626;23.200;2023-08-06T04:36:59;70618.47;;;-143.00;100.00
1776;BME280;885;42.626;23.200;2023-08-06T04:39:26;70618.47;;;-143.00;100.00
1776;BME280;885;42.626;23.200;2023-08-06T04:41:53;70618.47;;;-143.00;100.00
1776;BME280;885;42.626;23.200;2023-08-06T04:44:22;70618.47;;;-143.00;100.00
1776;BME280;885;42.626;23.200;2023-08-06T04:46:48;70618.47;;;-143.00;100.00
1776;BME280;885;42.626;23.200;2023-08-06T04:49:15;70618.47;;;-143.00;100.00
1776;BME280;885;42.626;23.200;2023-08-06T04:51:42;70618.47;;;-143.00;100.00
1776;BME280;885;42.626;23.200;2023-08-06T04:54:09;70618.47;;;-143.00;100.00
1776;BME280;885;42.626;23.200;2023-08-06T04:56:36;70618.47;;;-143.00;100.00
1776;BME280;885;42.626;23.200;2023-08-06T04:59:03;70618.47;;;-143.00;100.00
1776;BME280;885;42.626;23.200;2023-08-06T05:01:31;70618.47;;;-143.00;100.00
1776;BME280;885;42.626;23.200;2023-08-06T05:04:00;70618.47;;;-143.00;100.00
1776;BME280;885;42.626;23.200;2023-08-06T05:06:26;70618.47;;;-143.00;100.00
1776;BME280;885;42.626;23.200;2023-08-06T05:08:53;70618.47;;;-143.00;100.00
1776;BME280;885;42.626;23.200;2023-08-06T05:11:20;70618.47;;;-143.00;100.00
1776;BME280;885;42.626;23.200;2023-08-06T05:13:47;70618.47;;;-143.00;100.00
1776;BME280;885;42.626;23.200;2023-08-06T05:16:13;70618.47;;;-143.00;100.00
1776;BME280;885;42.626;23.200;2023-08-06T05:18:42;70618.47;;;-143.00;100.00
1776;BME280;885;42.626;23.200;2023-08-06T05:21:08;70618.47;;;-143.00;100.00
1776;BME280;885;42.626;23.200;2023-08-06T05:23:36;70618.47;;;-143.00;100.00
1776;BME280;885;42.626;23.200;2023-08-06T05:26:03;70618.47;;;-143.00;100.00
1776;BME280;885;42.626;23.200;2023-08-06T05:28:30;70618.47;;;-143.00;100.00
1776;BME280;885;42.626;23.200;2023-08-06T05:30:57;70618.47;;;-143.00;100.00
1776;BME280;885;42.626;23.200;2023-08-06T05:33:24;70618.47;;;-143.00;100.00
1776;BME280;885;42.626;23.200;2023-08-06T05:35:55;70618.47;;;-143.00;100.00
1776;BME280;885;42.626;23.200;2023-08-06T05:38:22;70618.47;;;-143.00;100.00
1776;BME280;885;42.626;23.200;2023-08-06T05:40:49;70618.47;;;-143.00;100.00
1776;BME280;885;42.626;23.200;2023-08-06T05:43:15;70618.47;;;-143.00;100.00
1776;BME280;885;42.626;23.200;2023-08-06T05:45:44;70618.47;;;-143.00;100.00
1776;BME280;885;42.626;23.200;2023-08-06T05:48:11;70618.47;;;-143.00;100.00
1776;BME280;885;42.626;23.200;2023-08-06T05:50:38;70618.47;;;-143.00;100.00
1776;BME280;885;42.626;23.200;2023-08-06T05:53:07;70618.47;;;-143.00;100.00
1776;BME280;885;42.626;23.200;2023-08-06T05:55:34;70618.47;;;-143.00;100.00
1776;BME280;885;42.626;23.200;2023-08-06T05:58:01;70618.47;;;-143.00;100.00
1776;BME280;885;42.626;23.200;2023-08-06T06:00:27;70618.47;;;-143.00;100.00
1776;BME280;885;42.626;23.200;2023-08-06T06:02:54;70618.47;;;-143.00;100.00
1776;BME280;885;42.626;23.200;2023-08-06T06:05:21;70618.47;;;-143.00;100.00
1776;BME280;885;42.626;23.200;2023-08-06T06:07:48;70618.47;;;-143.00;100.00
1776;BME280;885;42.626;23.200;2023-08-06T06:10:16;70618.47;;;-143.00;100.00
1776;BME280;885;42.626;23.200;2023-08-06T06:12:43;70618.47;;;-143.00;100.00
1776;BME280;885;42.626;23.200;2023-08-06T06:15:10;70618.47;;;-143.00;100.00
1776;BME280;885;42.626;23.200;2023-08-06T06:17:37;70618.47;;;-143.00;100.00
1776;BME280;885;42.626;23.200;2023-08-06T06:20:05;70618.47;;;-143.00;100.00
1776;BME280;885;42.626;23.200;2023-08-06T06:22:32;70618.47;;;-143.00;100.00
1776;BME280;885;42.626;23.200;2023-08-06T06:24:59;70618.47;;;-143.00;100.00
1776;BME280;885;42.626;23.200;2023-08-06T06:27:27;70618.47;;;-143.00;100.00
1776;BME280;885;42.626;23.200;2023-08-06T06:29:54;70618.47;;;-143.00;100.00
1776;BME280;885;42.626;23.200;2023-08-06T06:32:21;70618.47;;;-143.00;100.00
1776;BME280;885;42.626;23.200;2023-08-06T06:34:48;70618.47;;;-143.00;100.00
1776;BME280;885;42.626;23.200;2023-08-06T06:37:15;70618.47;;;-143.00;100.00
1776;BME280;885;42.626;23.200;2023-08-06T06:39:42;70618.47;;;-143.00;100.00
1776;BME280;885;42.626;23.200;2023-08-06T06:42:09;70618.47;;;-143.00;100.00
1776;BME280;885;42.626;23.200;2023-08-06T06:44:40;70618.47;;;-143.00;100.00
1776;BME280;885;42.626;23.200;2023-08-06T06:47:07;70618.47;;;-143.00;100.00
1776;BME280;885;42.626;23.200;2023-08-06T06:49:34;70618.47;;;-143.00;100.00
1776;BME280;885;42.626;23.200;2023-08-06T06:52:01;70618.47;;;-143.00;100.00
1776;BME280;885;42.626;23.200;2023-08-06T06:54:27;70618.47;;;-143.00;100.00
1776;BME280;885;42.626;23.200;2023-08-06T06:56:55;70618.47;;;-143.00;100.00
1776;BME280;885;42.626;23.200;2023-08-06T06:59:22;70618.47;;;-143.00;100.00
1776;BME280;885;42.626;23.200;2023-08-06T07:01:50;70618.47;;;-143.00;100.00
1776;BME280;885;42.626;23.200;2023-08-06T07:04:17;70618.47;;;-143.00;100.00
1776;BME280;885;42.626;23.200;2023-08-06T07:06:44;70618.47;;;-143.00;100.00
1776;BME280;885;42.626;23.200;2023-08-06T07:09:11;70618.47;;;-143.00;100.00
1776;BME280;885;42.626;23.200;2023-08-06T07:11:38;70618.47;;;-143.00;100.00
1776;BME280;885;42.626;23.200;2023-08-06T07:14:09;70618.47;;;-143.00;100.00
1776;BME280;885;42.626;23.200;2023-08-06T07:16:36;70618.47;;;-143.00;100.00
1776;BME280;885;42.626;23.200;2023-08-06T07:19:04;70618.47;;;-143.00;100.00
1776;BME280;885;42.626;23.200;2023-08-06T07:21:31;70618.47;;;-143.00;100.00
1776;BME280;885;42.626;23.200;2023-08-06T07:23:58;70618.47;;;-143.00;100.00
1776;BME280;885;42.626;23.200;2023-08-06T07:26:25;70618.47;;;-143.00;100.00
1776;BME280;885;42.626;23.200;2023-08-06T07:28:52;70618.47;;;-143.00;100.00
1776;BME280;885;42.626;23.200;2023-08-06T07:31:19;70618.47;;;-143.00;100.00
1776;BME280;885;42.626;23.200;2023-08-06T07:33:46;70618.47;;;-143.00;100.00
1776;BME280;885;42.626;23.200;2023-08-06T07:36:15;70618.47;;;-143.00;100.00
1776;BME280;885;42.626;23.200;2023-08-06T07:38:42;70618.47;;;-143.00;100.00
1776;BME280;885;42.626;23.200;2023-08-06T07:41:09;70618.47;;;-143.00;100.00
1776;BME280;885;42.626;23.200;2023-08-06T07:43:35;70618.47;;;-143.00;100.00
1776;BME280;885;42.626;23.200;2023-08-06T07:46:02;70618.47;;;-143.00;100.00
1776;BME280;885;42.626;23.200;2023-08-06T07:48:31;70618.47;;;-143.00;100.00
1776;BME280;885;42.626;23.200;2023-08-06T07:50:57;70618.47;;;-143.00;100.00
1776;BME280;885;42.626;23.200;2023-08-06T07:53:26;70618.47;;;-143.00;100.00
1776;BME280;885;42.626;23.200;2023-08-06T07:55:55;70618.47;;;-143.00;100.00
1776;BME280;885;42.626;23.200;2023-08-06T07:58:23;70618.47;;;-143.00;100.00
1776;BME280;885;42.626;23.200;2023-08-06T08:00:50;70618.47;;;-143.00;100.00
1776;BME280;885;42.626;23.200;2023-08-06T08:03:17;70618.47;;;-143.00;100.00
1776;BME280;885;42.626;23.200;2023-08-06T08:05:45;70618.47;;;-143.00;100.00
1776;BME280;885;42.626;23.200;2023-08-06T08:08:11;70618.47;;;-143.00;100.00
1776;BME280;885;42.626;23.200;2023-08-06T08:10:40;70618.47;;;-143.00;100.00
1776;BME280;885;42.626;23.200;2023-08-06T08:13:07;70618.47;;;-143.00;100.00
1776;BME280;885;42.626;23.200;2023-08-06T08:15:34;70618.47;;;-143.00;100.00
1776;BME280;885;42.626;23.200;2023-08-06T08:18:01;70618.47;;;-143.00;100.00
1776;BME280;885;42.626;23.200;2023-08-06T08:20:28;70618.47;;;-143.00;100.00
1776;BME280;885;42.626;23.200;2023-08-06T08:22:58;70618.47;;;-143.00;100.00
1776;BME280;885;42.626;23.200;2023-08-06T08:25:26;70618.47;;;-143.00;100.00
1776;BME280;885;42.626;23.200;2023-08-06T08:27:54;70618.47;;;-143.00;100.00
1776;BME280;885;42.626;23.200;2023-08-06T08:30:21;70618.47;;;-143.00;100.00
1776;BME280;885;42.626;23.200;2023-08-06T08:32:50;70618.47;;;-143.00;100.00
1776;BME280;885;42.626;23.200;2023-08-06T08:35:17;70618.47;;;-143.00;100.00
1776;BME280;885;42.626;23.200;2023-08-06T08:37:44;70618.47;;;-143.00;100.00
1776;BME280;885;42.626;23.200;2023-08-06T08:40:11;70618.47;;;-143.00;100.00
1776;BME280;885;42.626;23.200;2023-08-06T08:42:37;70618.47;;;-143.00;100.00
1776;BME280;885;42.626;23.200;2023-08-06T08:45:11;70618.47;;;-143.00;100.00
1776;BME280;885;42.626;23.200;2023-08-06T08:47:40;70618.47;;;-143.00;100.00
1776;BME280;885;42.626;23.200;2023-08-06T08:50:08;70618.47;;;-143.00;100.00
1776;BME280;885;42.626;23.200;2023-08-06T08:52:36;70618.47;;;-143.00;100.00
1776;BME280;885;42.626;23.200;2023-08-06T08:55:07;70618.47;;;-143.00;100.00
1776;BME280;885;42.626;23.200;2023-08-06T08:57:34;70618.47;;;-143.00;100.00
1776;BME280;885;42.626;23.200;2023-08-06T09:00:01;70618.47;;;-143.00;100.00
1776;BME280;885;42.626;23.200;2023-08-06T09:02:30;70618.47;;;-143.00;100.00
1776;BME280;885;42.626;23.200;2023-08-06T09:04:59;70618.47;;;-143.00;100.00
1776;BME280;885;42.626;23.200;2023-08-06T09:07:29;70618.47;;;-143.00;100.00
1776;BME280;885;42.626;23.200;2023-08-06T09:10:02;70618.47;;;-143.00;100.00
1776;BME280;885;42.626;23.200;2023-08-06T09:12:30;70618.47;;;-143.00;100.00
1776;BME280;885;42.626;23.200;2023-08-06T09:14:56;70618.47;;;-143.00;100.00
1776;BME280;885;42.626;23.200;2023-08-06T09:17:23;70618.47;;;-143.00;100.00
1776;BME280;885;42.626;23.200;2023-08-06T09:19:51;70618.47;;;-143.00;100.00
1776;BME280;885;42.626;23.200;2023-08-06T09:22:18;70618.47;;;-143.00;100.00
1776;BME280;885;42.626;23.200;2023-08-06T09:24:45;70618.47;;;-143.00;100.00
1776;BME280;885;42.626;23.200;2023-08-06T09:27:12;70618.47;;;-143.00;100.00
1776;BME280;885;42.626;23.200;2023-08-06T09:29:41;70618.47;;;-143.00;100.00
1776;BME280;885;42.626;23.200;2023-08-06T09:32:09;70618.47;;;-143.00;100.00
1776;BME280;885;42.626;23.200;2023-08-06T09:34:38;70618.47;;;-143.00;100.00
1776;BME280;885;42.626;23.200;2023-08-06T09:37:08;70618.47;;;-143.00;100.00
1776;BME280;885;42.626;23.200;2023-08-06T09:39:38;70618.47;;;-143.00;100.00
1776;BME280;885;42.626;23.200;2023-08-06T09:42:04;70618.47;;;-143.00;100.00
1776;BME280;885;42.626;23.200;2023-08-06T09:44:32;70618.47;;;-143.00;100.00
1776;BME280;885;42.626;23.200;2023-08-06T09:47:00;70618.47;;;-143.00;100.00
1776;BME280;885;42.626;23.200;2023-08-06T09:49:40;70618.47;;;-143.00;100.00
1776;BME280;885;42.626;23.200;2023-08-06T09:52:12;70618.47;;;-143.00;100.00
1776;BME280;885;42.626;23.200;2023-08-06T09:54:42;70618.47;;;-143.00;100.00
1776;BME280;885;42.626;23.200;2023-08-06T09:57:11;70618.47;;;-143.00;100.00
1776;BME280;885;42.626;23.200;2023-08-06T09:59:39;70618.47;;;-143.00;100.00
1776;BME280;885;42.626;23.200;2023-08-06T10:02:13;70618.47;;;-143.00;100.00
1776;BME280;885;42.626;23.200;2023-08-06T10:04:42;70618.47;;;-143.00;100.00
1776;BME280;885;42.626;23.200;2023-08-06T10:07:13;70618.47;;;-143.00;100.00
1776;BME280;885;42.626;23.200;2023-08-06T10:09:41;70618.47;;;-143.00;100.00
1776;BME280;885;42.626;23.200;2023-08-06T10:12:08;70618.47;;;-143.00;100.00
1776;BME280;885;42.626;23.200;2023-08-06T10:14:37;70618.47;;;-143.00;100.00
1776;BME280;885;42.626;23.200;2023-08-06T10:17:05;70618.47;;;-143.00;100.00
1776;BME280;885;42.626;23.200;2023-08-06T10:19:32;70618.47;;;-143.00;100.00
1776;BME280;885;42.626;23.200;2023-08-06T10:22:10;70618.47;;;-143.00;100.00
1776;BME280;885;42.626;23.200;2023-08-06T10:24:52;70618.47;;;-143.00;100.00
1776;BME280;885;42.626;23.200;2023-08-06T10:27:21;70618.47;;;-143.00;100.00
1776;BME280;885;42.626;23.200;2023-08-06T10:29:48;70618.47;;;-143.00;100.00
1776;BME280;885;42.626;23.200;2023-08-06T10:32:15;70618.47;;;-143.00;100.00
1776;BME280;885;42.626;23.200;2023-08-06T10:34:59;70618.47;;;-143.00;100.00
1776;BME280;885;42.626;23.200;2023-08-06T10:37:35;70618.47;;;-143.00;100.00
1776;BME280;885;42.626;23.200;2023-08-06T10:40:06;70618.47;;;-143.00;100.00
1776;BME280;885;42.626;23.200;2023-08-06T10:42:34;70618.47;;;-143.00;100.00
1776;BME280;885;42.626;23.200;2023-08-06T10:45:14;70618.47;;;-143.00;100.00
1776;BME280;885;42.626;23.200;2023-08-06T10:47:42;70618.47;;;-143.00;100.00
1776;BME280;885;42.626;23.200;2023-08-06T10:50:10;70618.47;;;-143.00;100.00
1776;BME280;885;42.626;23.200;2023-08-06T10:52:37;70618.47;;;-143.00;100.00
1776;BME280;885;42.626;23.200;2023-08-06T10:55:07;70618.47;;;-143.00;100.00
1776;BME280;885;42.626;23.200;2023-08-06T10:57:34;70618.47;;;-143.00;100.00
1776;BME280;885;42.626;23.200;2023-08-06T11:00:01;70618.47;;;-143.00;100.00
1776;BME280;885;42.626;23.200;2023-08-06T11:02:28;70618.47;;;-143.00;100.00
1776;BME280;885;42.626;23.200;2023-08-06T11:04:55;70618.47;;;-143.00;100.00
1776;BME280;885;42.626;23.200;2023-08-06T11:07:21;70618.47;;;-143.00;100.00
1776;BME280;885;42.626;23.200;2023-08-06T11:09:50;70618.47;;;-143.00;100.00
1776;BME280;885;42.626;23.200;2023-08-06T11:12:20;70618.47;;;-143.00;100.00
1776;BME280;885;42.626;23.200;2023-08-06T11:14:50;70618.47;;;-143.00;100.00
1776;BME280;885;42.626;23.200;2023-08-06T11:17:17;70618.47;;;-143.00;100.00
1776;BME280;885;42.626;23.200;2023-08-06T11:19:44;70618.47;;;-143.00;100.00
1776;BME280;885;42.626;23.200;2023-08-06T11:22:11;70618.47;;;-143.00;100.00
1776;BME280;885;42.626;23.200;2023-08-06T11:24:38;70618.47;;;-143.00;100.00
1776;BME280;885;42.626;23.200;2023-08-06T11:27:11;70618.47;;;-143.00;100.00
1776;BME280;885;42.626;23.200;2023-08-06T11:29:40;70618.47;;;-143.00;100.00
1776;BME280;885;42.626;23.200;2023-08-06T11:32:07;70618.47;;;-143.00;100.00
1776;BME280;885;42.626;23.200;2023-08-06T11:34:34;70618.47;;;-143.00;100.00
1776;BME280;885;42.626;23.200;2023-08-06T11:37:02;70618.47;;;-143.00;100.00
1776;BME280;885;42.626;23.200;2023-08-06T11:39:31;70618.47;;;-143.00;100.00
1776;BME280;885;42.626;23.200;2023-08-06T11:41:58;70618.47;;;-143.00;100.00
1776;BME280;885;42.626;23.200;2023-08-06T11:44:30;70618.47;;;-143.00;100.00
1776;BME280;885;42.626;23.200;2023-08-06T11:47:00;70618.47;;;-143.00;100.00
1776;BME280;885;42.626;23.200;2023-08-06T11:49:38;70618.47;;;-143.00;100.00
1776;BME280;885;42.626;23.200;2023-08-06T11:52:10;70618.47;;;-143.00;100.00
1776;BME280;885;42.626;23.200;2023-08-06T11:54:37;70618.47;;;-143.00;100.00
1776;BME280;885;42.626;23.200;2023-08-06T11:57:05;70618.47;;;-143.00;100.00
1776;BME280;885;42.626;23.200;2023-08-06T11:59:33;70618.47;;;-143.00;100.00
1776;BME280;885;42.626;23.200;2023-08-06T12:02:02;70618.47;;;-143.00;100.00
1776;BME280;885;42.626;23.200;2023-08-06T12:04:31;70618.47;;;-143.00;100.00
1776;BME280;885;42.626;23.200;2023-08-06T12:07:04;70618.47;;;-143.00;100.00
1776;BME280;885;42.626;23.200;2023-08-06T12:09:33;70618.47;;;-143.00;100.00
1776;BME280;885;42.626;23.200;2023-08-06T12:12:01;70618.47;;;-143.00;100.00
1776;BME280;885;42.626;23.200;2023-08-06T12:14:28;70618.47;;;-143.00;100.00
1776;BME280;885;42.626;23.200;2023-08-06T12:16:55;70618.47;;;-143.00;100.00
1776;BME280;885;42.626;23.200;2023-08-06T12:19:23;70618.47;;;-143.00;100.00
1776;BME280;885;42.626;23.200;2023-08-06T12:21:51;70618.47;;;-143.00;100.00
1776;BME280;885;42.626;23.200;2023-08-06T12:24:18;70618.47;;;-143.00;100.00
1776;BME280;885;42.626;23.200;2023-08-06T12:26:45;70618.47;;;-143.00;100.00
1776;BME280;885;42.626;23.200;2023-08-06T12:29:11;70618.47;;;-143.00;100.00
1776;BME280;885;42.626;23.200;2023-08-06T12:31:38;70618.47;;;-143.00;100.00
1776;BME280;885;42.626;23.200;2023-08-06T12:34:05;70618.47;;;-143.00;100.00
1776;BME280;885;42.626;23.200;2023-08-06T12:36:33;70618.47;;;-143.00;100.00
1776;BME280;885;42.626;23.200;2023-08-06T12:39:00;70618.47;;;-143.00;100.00
1776;BME280;885;42.626;23.200;2023-08-06T12:41:27;70618.47;;;-143.00;100.00
1776;BME280;885;42.626;23.200;2023-08-06T12:43:54;70618.47;;;-143.00;100.00
1776;BME280;885;42.626;23.200;2023-08-06T12:46:20;70618.47;;;-143.00;100.00
1776;BME280;885;42.626;23.200;2023-08-06T12:48:47;70618.47;;;-143.00;100.00
1776;BME280;885;42.626;23.200;2023-08-06T12:51:14;70618.47;;;-143.00;100.00
1776;BME280;885;42.626;23.200;2023-08-06T12:53:43;70618.47;;;-143.00;100.00
1776;BME280;885;42.626;23.200;2023-08-06T12:56:09;70618.47;;;-143.00;100.00